createdAt,value
2022-12-13T00:01:45.405Z,20.62
2022-12-13T00:03:46.940Z,20.60
2022-12-13T00:05:48.308Z,20.56
2022-12-13T00:07:49.677Z,20.55
2022-12-13T00:09:51.019Z,20.52
2022-12-13T00:11:52.336Z,20.58
2022-12-13T00:13:53.669Z,20.59
2022-12-13T00:15:55.098Z,20.56
2022-12-13T00:17:56.393Z,20.52
2022-12-13T00:19:57.971Z,20.52
2022-12-13T00:21:59.265Z,20.50
2022-12-13T00:24:00.596Z,19.75
2022-12-13T00:26:01.887Z,20.49
2022-12-13T00:28:03.431Z,20.46
2022-12-13T00:30:04.724Z,20.48
2022-12-13T00:32:06.049Z,20.47
2022-12-13T00:34:07.396Z,20.44
2022-12-13T00:36:08.725Z,20.44
2022-12-13T00:38:10.057Z,20.46
2022-12-13T00:40:11.352Z,20.43
2022-12-13T00:42:12.799Z,20.43
2022-12-13T00:44:14.153Z,20.50
2022-12-13T00:46:15.542Z,20.52
2022-12-13T00:48:16.839Z,20.50
2022-12-13T00:50:18.174Z,20.51
2022-12-13T00:52:19.492Z,20.50
2022-12-13T00:54:20.851Z,20.50
2022-12-13T00:56:23.434Z,20.52
2022-12-13T00:58:24.767Z,20.49
2022-12-13T01:00:26.061Z,20.47
2022-12-13T01:02:27.360Z,20.54
2022-12-13T01:04:28.676Z,20.55
2022-12-13T01:06:29.997Z,20.56
2022-12-13T01:08:31.315Z,20.57
2022-12-13T01:10:32.661Z,20.58
2022-12-13T01:12:33.981Z,20.60
2022-12-13T01:14:35.393Z,20.59
2022-12-13T01:16:36.742Z,20.58
2022-12-13T01:18:38.084Z,20.60
2022-12-13T01:20:39.411Z,20.60
2022-12-13T01:22:40.705Z,20.64
2022-12-13T01:24:42.000Z,20.61
2022-12-13T01:26:43.339Z,20.64
2022-12-13T01:28:44.726Z,20.61
2022-12-13T01:30:46.109Z,20.58
2022-12-13T01:32:47.428Z,20.58
2022-12-13T01:34:48.716Z,20.61
2022-12-13T01:36:50.184Z,20.58
2022-12-13T01:38:51.512Z,20.57
2022-12-13T01:40:59.541Z,20.53
2022-12-13T01:43:00.827Z,20.58
2022-12-13T01:45:02.624Z,20.58
2022-12-13T01:47:03.908Z,20.58
2022-12-13T01:49:05.257Z,20.58
2022-12-13T01:51:06.637Z,20.57
2022-12-13T01:53:07.924Z,20.58
2022-12-13T01:55:09.327Z,20.58
2022-12-13T01:57:10.620Z,20.48
2022-12-13T01:59:11.915Z,20.47
2022-12-13T02:01:13.285Z,20.44
2022-12-13T02:03:21.301Z,20.44
2022-12-13T02:05:23.247Z,20.41
2022-12-13T02:07:24.638Z,20.38
2022-12-13T02:09:25.998Z,20.38
2022-12-13T02:11:27.724Z,20.40
2022-12-13T02:13:29.032Z,20.46
2022-12-13T02:15:30.315Z,20.47
2022-12-13T02:17:31.690Z,20.47
2022-12-13T02:19:32.991Z,20.44
2022-12-13T02:21:34.356Z,20.43
2022-12-13T02:23:36.467Z,20.43
2022-12-13T02:25:37.755Z,20.44
2022-12-13T02:27:42.511Z,20.50
2022-12-13T02:29:44.476Z,20.54
2022-12-13T02:31:45.825Z,20.55
2022-12-13T02:33:47.225Z,20.55
2022-12-13T02:35:48.551Z,20.55
2022-12-13T02:37:54.341Z,20.54
2022-12-13T02:39:55.708Z,20.57
2022-12-13T02:41:57.033Z,20.64
2022-12-13T02:44:01.289Z,20.72
2022-12-13T02:46:03.098Z,20.62
2022-12-13T02:48:04.583Z,20.58
2022-12-13T02:50:05.924Z,20.56
2022-12-13T02:52:07.260Z,20.54
2022-12-13T02:54:08.745Z,20.57
2022-12-13T02:56:10.046Z,20.61
2022-12-13T02:58:11.336Z,20.63
2022-12-13T03:00:12.716Z,20.64
2022-12-13T03:02:14.131Z,20.64
2022-12-13T03:04:32.708Z,20.60
2022-12-13T03:06:34.786Z,20.57
2022-12-13T03:08:36.205Z,20.64
2022-12-13T03:10:37.493Z,20.63
2022-12-13T03:12:57.481Z,20.61
2022-12-13T03:14:58.792Z,20.58
2022-12-13T03:17:00.085Z,20.56
2022-12-13T03:19:01.436Z,20.56
2022-12-13T03:21:02.768Z,19.67
2022-12-13T03:23:04.088Z,20.51
2022-12-13T03:25:05.415Z,20.48
2022-12-13T03:27:06.732Z,20.43
2022-12-13T03:29:08.061Z,20.41
2022-12-13T03:31:09.488Z,20.35
2022-12-13T03:33:10.822Z,20.34
2022-12-13T03:35:21.816Z,20.32
2022-12-13T03:37:23.683Z,20.28
2022-12-13T03:39:24.991Z,20.26
2022-12-13T03:41:31.505Z,20.39
2022-12-13T03:43:32.795Z,20.32
2022-12-13T03:45:34.105Z,20.19
2022-12-13T03:47:35.521Z,20.08
2022-12-13T03:49:36.816Z,20.01
2022-12-13T03:51:38.102Z,19.98
2022-12-13T03:53:39.476Z,20.09
2022-12-13T03:55:40.767Z,18.76
2022-12-13T03:57:42.125Z,14.71
2022-12-13T03:59:43.410Z,13.98
2022-12-13T04:01:44.770Z,16.29
2022-12-13T04:03:46.260Z,17.90
2022-12-13T04:05:47.560Z,18.75
2022-12-13T04:07:48.913Z,19.24
2022-12-13T04:09:50.272Z,19.62
2022-12-13T04:12:10.137Z,19.90
2022-12-13T04:14:11.967Z,20.16
2022-12-13T04:16:13.344Z,20.32
2022-12-13T04:18:14.740Z,20.45
2022-12-13T04:20:16.076Z,20.58
2022-12-13T04:22:23.269Z,20.69
2022-12-13T04:24:31.709Z,20.76
2022-12-13T04:26:33.609Z,20.80
2022-12-13T04:28:34.896Z,20.88
2022-12-13T04:30:36.176Z,20.94
2022-12-13T04:32:37.469Z,20.98
2022-12-13T04:34:38.760Z,20.99
2022-12-13T04:36:40.093Z,20.97
2022-12-13T04:38:41.380Z,20.98
2022-12-13T04:40:42.672Z,20.95
2022-12-13T04:42:44.255Z,20.88
2022-12-13T04:44:46.310Z,20.80
2022-12-13T04:46:47.692Z,20.75
2022-12-13T04:48:49.024Z,20.69
2022-12-13T04:50:50.321Z,20.63
2022-12-13T04:52:51.606Z,20.56
2022-12-13T04:54:55.731Z,20.50
2022-12-13T04:56:57.628Z,20.45
2022-12-13T04:58:59.041Z,20.38
2022-12-13T05:01:00.438Z,20.32
2022-12-13T05:03:02.757Z,20.25
2022-12-13T05:05:04.036Z,20.21
2022-12-13T05:07:05.328Z,20.12
2022-12-13T05:09:11.406Z,20.05
2022-12-13T05:11:13.036Z,19.99
2022-12-13T05:13:14.359Z,19.90
2022-12-13T05:15:15.758Z,19.86
2022-12-13T05:17:17.219Z,19.80
2022-12-13T05:19:18.545Z,19.73
2022-12-13T05:21:19.833Z,19.67
2022-12-13T05:23:22.610Z,19.64
2022-12-13T05:25:24.376Z,19.61
2022-12-13T05:27:26.896Z,19.58
2022-12-13T05:29:28.400Z,19.56
2022-12-13T05:31:29.749Z,19.54
2022-12-13T05:33:31.044Z,19.53
2022-12-13T05:35:32.440Z,19.51
2022-12-13T05:37:34.847Z,19.50
2022-12-13T05:39:36.307Z,19.52
2022-12-13T05:41:37.701Z,19.54
2022-12-13T05:43:42.712Z,19.56
2022-12-13T05:45:44.973Z,19.59
2022-12-13T05:47:47.954Z,19.62
2022-12-13T05:49:49.277Z,19.65
2022-12-13T05:51:50.596Z,19.68
2022-12-13T05:53:53.506Z,19.69
2022-12-13T05:55:54.954Z,19.70
2022-12-13T05:58:02.319Z,19.71
2022-12-13T06:00:03.990Z,19.71
2022-12-13T06:02:05.426Z,19.70
2022-12-13T06:04:07.055Z,19.72
2022-12-13T06:06:08.643Z,19.71
2022-12-13T06:08:24.361Z,19.74
2022-12-13T06:10:34.000Z,19.79
2022-12-13T06:12:35.825Z,19.85
2022-12-13T06:14:44.741Z,19.90
2022-12-13T06:16:46.069Z,19.98
2022-12-13T06:18:47.449Z,20.04
2022-12-13T06:20:52.028Z,20.11
2022-12-13T06:22:53.329Z,20.17
2022-12-13T06:24:55.029Z,20.24
2022-12-13T06:26:56.369Z,20.23
2022-12-13T06:28:57.703Z,20.25
2022-12-13T06:30:59.066Z,20.23
2022-12-13T06:33:00.427Z,20.22
2022-12-13T06:35:01.709Z,20.19
2022-12-13T06:37:22.995Z,20.13
2022-12-13T06:39:24.920Z,20.09
2022-12-13T06:41:33.881Z,20.06
2022-12-13T06:43:35.217Z,20.00
2022-12-13T06:45:36.965Z,19.98
2022-12-13T06:47:38.264Z,19.92
2022-12-13T06:49:39.888Z,19.91
2022-12-13T06:51:41.445Z,19.86
2022-12-13T06:53:42.733Z,19.84
2022-12-13T06:55:44.061Z,19.81
2022-12-13T06:57:45.343Z,19.76
2022-12-13T06:59:46.630Z,19.74
2022-12-13T07:01:48.008Z,19.70
2022-12-13T07:03:52.168Z,19.68
2022-12-13T07:05:56.869Z,19.65
2022-12-13T07:07:59.786Z,19.61
2022-12-13T07:10:01.089Z,19.59
2022-12-13T07:12:02.420Z,19.58
2022-12-13T07:14:07.747Z,19.57
2022-12-13T07:16:09.130Z,19.56
2022-12-13T07:18:10.446Z,19.56
2022-12-13T07:20:13.587Z,19.55
2022-12-13T07:22:14.913Z,19.54
2022-12-13T07:24:16.240Z,19.55
2022-12-13T07:26:17.537Z,19.55
2022-12-13T07:28:18.844Z,19.57
2022-12-13T07:30:20.192Z,19.58
2022-12-13T07:32:21.492Z,19.59
2022-12-13T07:34:22.797Z,19.58
2022-12-13T07:36:24.132Z,19.60
2022-12-13T07:38:25.447Z,19.62
2022-12-13T07:40:26.750Z,19.67
2022-12-13T07:42:28.230Z,19.69
2022-12-13T07:44:29.545Z,19.74
2022-12-13T07:46:33.263Z,19.81
2022-12-13T07:48:35.001Z,19.87
2022-12-13T07:50:37.626Z,19.94
2022-12-13T07:52:39.273Z,20.00
2022-12-13T07:54:40.739Z,20.05
2022-12-13T07:56:42.057Z,20.13
2022-12-13T07:58:44.067Z,20.14
2022-12-13T08:00:45.998Z,20.15
2022-12-13T08:02:47.961Z,20.14
2022-12-13T08:04:54.704Z,20.13
2022-12-13T08:06:56.727Z,20.09
2022-12-13T08:08:58.059Z,20.07
2022-12-13T08:11:01.499Z,20.03
2022-12-13T08:13:03.162Z,20.01
2022-12-13T08:15:09.349Z,19.96
2022-12-13T08:17:13.685Z,19.92
2022-12-13T08:19:14.982Z,19.89
2022-12-13T08:21:51.912Z,19.89
2022-12-13T08:23:37.581Z,19.84
2022-12-13T08:25:38.871Z,19.82
2022-12-13T08:27:43.132Z,19.79
2022-12-13T08:29:44.533Z,19.79
2022-12-13T08:31:46.109Z,19.76
2022-12-13T08:33:48.612Z,19.74
2022-12-13T08:35:49.915Z,19.71
2022-12-13T08:37:51.277Z,19.70
2022-12-13T08:39:52.569Z,19.68
2022-12-13T08:41:53.854Z,19.68
2022-12-13T08:43:55.149Z,19.67
2022-12-13T08:46:01.304Z,19.67
2022-12-13T08:48:03.402Z,19.66
2022-12-13T08:50:04.796Z,19.66
2022-12-13T08:52:06.148Z,19.66
2022-12-13T08:54:10.252Z,19.66
2022-12-13T08:56:12.259Z,19.66
2022-12-13T08:58:14.269Z,19.66
2022-12-13T09:00:15.564Z,19.66
2022-12-13T09:02:17.222Z,19.66
2022-12-13T09:04:18.600Z,19.68
2022-12-13T09:06:33.177Z,19.68
2022-12-13T09:08:35.101Z,19.71
2022-12-13T09:10:38.494Z,19.72
2022-12-13T09:12:41.694Z,19.76
2022-12-13T09:14:45.348Z,19.79
2022-12-13T09:16:51.145Z,19.85
2022-12-13T09:18:55.162Z,19.89
2022-12-13T09:21:11.335Z,19.95
2022-12-13T09:23:23.715Z,19.99
2022-12-13T09:25:25.500Z,20.06
2022-12-13T09:27:27.646Z,20.09
2022-12-13T09:29:30.108Z,20.09
2022-12-13T09:31:34.840Z,20.10
2022-12-13T09:33:41.168Z,20.09
2022-12-13T09:35:43.149Z,20.08
2022-12-13T09:37:46.198Z,20.04
2022-12-13T09:39:47.806Z,20.00
2022-12-13T09:42:00.642Z,19.96
2022-12-13T09:44:02.858Z,19.93
2022-12-13T09:46:04.233Z,19.89
2022-12-13T09:48:14.780Z,19.87
2022-12-13T09:50:25.161Z,19.85
2022-12-13T09:52:33.343Z,19.82
2022-12-13T09:54:36.519Z,19.78
2022-12-13T09:56:37.936Z,19.76
2022-12-13T09:58:39.268Z,19.75
2022-12-13T10:00:40.674Z,19.72
2022-12-13T10:02:41.994Z,19.72
2022-12-13T10:04:46.336Z,19.71
2022-12-13T10:06:47.617Z,19.71
2022-12-13T10:08:48.911Z,19.70
2022-12-13T10:10:50.204Z,19.69
2022-12-13T10:12:51.588Z,19.71
2022-12-13T10:14:53.112Z,19.71
2022-12-13T10:16:54.518Z,19.70
2022-12-13T10:18:56.367Z,19.70
2022-12-13T10:20:57.657Z,19.68
2022-12-13T10:23:52.580Z,19.69
2022-12-13T10:25:20.249Z,19.69
2022-12-13T10:27:21.640Z,19.70
2022-12-13T10:29:23.166Z,19.72
2022-12-13T10:31:24.480Z,19.72
2022-12-13T10:33:26.037Z,19.73
2022-12-13T10:35:27.579Z,19.76
2022-12-13T10:37:28.897Z,19.78
2022-12-13T10:39:30.188Z,19.79
2022-12-13T10:41:31.528Z,19.83
2022-12-13T10:43:33.793Z,19.85
2022-12-13T10:45:35.162Z,19.90
2022-12-13T10:47:36.864Z,19.95
2022-12-13T10:49:38.185Z,20.00
2022-12-13T10:51:39.516Z,20.06
2022-12-13T10:53:47.149Z,20.10
2022-12-13T10:55:49.244Z,20.12
2022-12-13T10:57:50.572Z,20.13
2022-12-13T10:59:51.863Z,20.13
2022-12-13T11:01:53.235Z,20.10
2022-12-13T11:03:54.837Z,20.07
2022-12-13T11:06:03.433Z,20.05
2022-12-13T11:08:04.722Z,20.00
2022-12-13T11:10:06.373Z,19.95
2022-12-13T11:12:16.532Z,19.03
2022-12-13T11:14:17.949Z,19.89
2022-12-13T11:16:33.599Z,19.85
2022-12-13T11:18:34.976Z,18.97
2022-12-13T11:20:36.265Z,19.79
2022-12-13T11:22:37.676Z,19.76
2022-12-13T11:24:39.124Z,19.76
2022-12-13T11:26:42.912Z,19.71
2022-12-13T11:28:44.655Z,19.70
2022-12-13T11:30:46.210Z,19.66
2022-12-13T11:32:47.524Z,19.64
2022-12-13T11:34:49.046Z,19.65
2022-12-13T11:36:50.552Z,19.65
2022-12-13T11:38:57.642Z,19.63
2022-12-13T11:40:59.938Z,19.64
2022-12-13T11:43:01.265Z,19.63
2022-12-13T11:45:02.599Z,19.62
2022-12-13T11:47:03.997Z,19.64
2022-12-13T11:49:05.285Z,19.63
2022-12-13T11:51:06.663Z,19.63
2022-12-13T11:53:07.952Z,19.62
2022-12-13T11:55:09.236Z,19.62
2022-12-13T11:57:10.863Z,19.61
2022-12-13T11:59:22.033Z,19.63
2022-12-13T12:01:27.642Z,19.64
2022-12-13T12:03:29.259Z,19.65
2022-12-13T12:05:30.856Z,19.69
2022-12-13T12:07:33.595Z,19.75
2022-12-13T12:09:36.473Z,19.77
2022-12-13T12:11:37.765Z,19.83
2022-12-13T12:13:51.074Z,19.88
2022-12-13T12:15:55.264Z,19.95
2022-12-13T12:17:56.729Z,19.99
2022-12-13T12:19:58.053Z,20.02
2022-12-13T12:22:15.525Z,20.03
2022-12-13T12:24:17.216Z,20.04
2022-12-13T12:26:18.553Z,20.05
2022-12-13T12:28:19.839Z,20.03
2022-12-13T12:30:22.924Z,20.00
2022-12-13T12:32:24.948Z,19.96
2022-12-13T12:34:27.245Z,19.91
2022-12-13T12:36:29.447Z,19.87
2022-12-13T12:38:30.800Z,19.84
2022-12-13T12:40:46.185Z,19.80
2022-12-13T12:43:14.187Z,19.77
2022-12-13T12:45:26.987Z,19.73
2022-12-13T12:49:58.040Z,19.70
2022-12-13T12:51:59.337Z,19.67
2022-12-13T12:54:00.632Z,19.64
2022-12-13T12:56:01.953Z,19.62
2022-12-13T12:58:03.276Z,19.60
2022-12-13T13:00:04.564Z,19.59
2022-12-13T13:02:07.571Z,19.57
2022-12-13T13:04:09.134Z,19.57
2022-12-13T13:06:10.437Z,19.57
2022-12-13T13:08:11.728Z,19.56
2022-12-13T13:10:16.729Z,19.55
2022-12-13T13:12:30.433Z,19.56
2022-12-13T13:14:32.105Z,19.58
2022-12-13T13:16:33.682Z,19.57
2022-12-13T13:18:38.072Z,19.57
2022-12-13T13:20:39.429Z,19.57
2022-12-13T13:22:53.701Z,19.60
2022-12-13T13:25:00.044Z,19.61
2022-12-13T13:27:01.391Z,19.64
2022-12-13T13:29:02.725Z,19.67
2022-12-13T13:31:04.137Z,19.72
2022-12-13T13:33:05.501Z,19.74
2022-12-13T13:35:06.821Z,19.72
2022-12-13T13:37:08.157Z,19.66
2022-12-13T13:39:09.449Z,19.61
2022-12-13T13:41:10.741Z,19.55
2022-12-13T13:43:12.633Z,19.50
2022-12-13T13:45:13.947Z,19.46
2022-12-13T13:47:15.480Z,19.45
2022-12-13T13:49:16.814Z,19.44
2022-12-13T13:51:18.192Z,19.47
2022-12-13T13:53:20.269Z,19.49
2022-12-13T13:55:21.737Z,19.52
2022-12-13T13:57:38.569Z,19.54
2022-12-13T13:59:44.410Z,19.56
2022-12-13T14:01:45.738Z,19.60
2022-12-13T14:03:47.115Z,18.78
2022-12-13T14:05:48.524Z,19.65
2022-12-13T14:07:49.811Z,19.67
2022-12-13T14:09:51.104Z,19.68
2022-12-13T14:11:52.439Z,19.69
2022-12-13T14:13:53.716Z,19.70
2022-12-13T14:15:55.035Z,19.71
2022-12-13T14:17:56.362Z,19.71
2022-12-13T14:19:57.665Z,19.70
2022-12-13T14:21:59.024Z,19.70
2022-12-13T14:24:00.330Z,19.68
2022-12-13T14:26:01.657Z,19.66
2022-12-13T14:28:02.966Z,19.64
2022-12-13T14:30:26.706Z,19.65
2022-12-13T14:32:26.316Z,19.63
2022-12-13T14:34:28.616Z,19.61
2022-12-13T14:36:32.165Z,19.60
2022-12-13T14:38:33.586Z,19.60
2022-12-13T14:40:35.019Z,19.59
2022-12-13T14:42:36.433Z,19.60
2022-12-13T14:44:37.882Z,19.58
2022-12-13T14:46:39.200Z,19.58
2022-12-13T14:48:40.578Z,19.59
2022-12-13T14:50:41.873Z,19.60
2022-12-13T14:52:43.524Z,19.59
2022-12-13T14:54:44.844Z,19.61
2022-12-13T14:56:46.273Z,19.61
2022-12-13T14:58:47.563Z,19.63
2022-12-13T15:00:49.324Z,19.64
2022-12-13T15:02:53.492Z,19.65
2022-12-13T15:04:57.736Z,19.68
2022-12-13T15:06:59.076Z,19.70
2022-12-13T15:09:00.409Z,19.71
2022-12-13T15:11:06.680Z,19.72
2022-12-13T15:13:10.810Z,19.73
2022-12-13T15:15:12.138Z,19.74
2022-12-13T15:17:13.460Z,19.77
2022-12-13T15:19:29.609Z,19.77
2022-12-13T15:21:33.481Z,19.76
2022-12-13T15:23:34.776Z,19.77
2022-12-13T15:25:36.117Z,19.75
2022-12-13T15:27:37.396Z,19.74
2022-12-13T15:29:38.686Z,19.75
2022-12-13T15:31:43.111Z,19.72
2022-12-13T15:33:51.323Z,19.71
2022-12-13T15:35:52.753Z,19.68
2022-12-13T15:37:54.080Z,19.66
2022-12-13T15:39:55.373Z,19.64
2022-12-13T15:41:59.728Z,19.62
2022-12-13T15:44:01.065Z,19.64
2022-12-13T15:46:02.741Z,19.61
2022-12-13T15:48:04.074Z,19.59
2022-12-13T15:50:05.465Z,19.58
2022-12-13T15:52:06.773Z,19.56
2022-12-13T15:54:08.096Z,19.55
2022-12-13T15:56:09.932Z,19.55
2022-12-13T15:58:11.285Z,19.54
2022-12-13T16:00:19.469Z,19.55
2022-12-13T16:02:31.157Z,19.54
2022-12-13T16:04:35.224Z,19.54
2022-12-13T16:06:36.519Z,19.55
2022-12-13T16:08:37.848Z,19.55
2022-12-13T16:10:39.140Z,19.57
2022-12-13T16:12:40.494Z,19.60
2022-12-13T16:14:50.135Z,19.61
2022-12-13T16:16:51.569Z,19.65
2022-12-13T16:18:53.549Z,19.68
2022-12-13T16:20:54.884Z,19.70
2022-12-13T16:22:59.840Z,19.73
2022-12-13T16:25:01.523Z,19.75
2022-12-13T16:27:08.223Z,19.77
2022-12-13T16:29:13.293Z,19.80
2022-12-13T16:31:15.007Z,19.81
2022-12-13T16:33:26.640Z,19.84
2022-12-13T16:35:29.012Z,19.85
2022-12-13T16:37:33.040Z,19.85
2022-12-13T16:39:34.328Z,19.83
2022-12-13T16:41:35.656Z,19.82
2022-12-13T16:43:37.238Z,19.81
2022-12-13T16:45:42.550Z,19.77
2022-12-13T16:47:48.281Z,20.05
2022-12-13T16:49:50.976Z,20.64
2022-12-13T16:51:52.268Z,21.05
2022-12-13T16:53:56.456Z,21.32
2022-12-13T16:56:00.779Z,21.62
2022-12-13T16:58:02.244Z,21.90
2022-12-13T17:00:03.607Z,22.10
2022-12-13T17:02:04.986Z,22.40
2022-12-13T17:04:11.886Z,22.41
2022-12-13T17:06:16.424Z,22.45
2022-12-13T17:08:17.723Z,22.59
2022-12-13T17:10:19.048Z,22.65
2022-12-13T17:12:20.336Z,22.70
2022-12-13T17:14:21.642Z,22.71
2022-12-13T17:16:22.994Z,22.75
2022-12-13T17:18:24.289Z,22.72
2022-12-13T17:20:25.705Z,22.77
2022-12-13T17:22:27.069Z,22.70
2022-12-13T17:24:31.401Z,22.76
2022-12-13T17:26:32.734Z,22.81
2022-12-13T17:28:34.033Z,22.73
2022-12-13T17:30:35.988Z,22.66
2022-12-13T17:32:37.797Z,22.64
2022-12-13T17:34:39.151Z,22.46
2022-12-13T17:36:40.482Z,21.98
2022-12-13T17:38:41.776Z,22.40
2022-12-13T17:42:45.504Z,22.33
2022-12-13T17:44:46.934Z,22.22
2022-12-13T17:46:54.649Z,22.18
2022-12-13T17:48:56.623Z,22.06
2022-12-13T17:50:57.911Z,21.97
2022-12-13T17:52:59.209Z,21.46
2022-12-13T17:55:01.057Z,21.60
2022-12-13T17:57:05.026Z,21.61
2022-12-13T17:59:06.426Z,21.66
2022-12-13T18:01:07.774Z,21.53
2022-12-13T18:03:09.105Z,21.44
2022-12-13T18:05:17.713Z,21.64
2022-12-13T18:07:22.334Z,21.57
2022-12-13T18:09:23.620Z,21.45
2022-12-13T18:11:34.166Z,21.42
2022-12-13T18:13:36.100Z,21.33
2022-12-13T18:15:37.515Z,21.41
2022-12-13T18:18:09.484Z,21.54
2022-12-13T18:20:01.053Z,21.77
2022-12-13T18:22:05.160Z,22.00
2022-12-13T18:24:06.552Z,21.88
2022-12-13T18:26:07.861Z,21.86
2022-12-13T18:28:09.496Z,21.80
2022-12-13T18:30:10.824Z,21.96
2022-12-13T18:32:13.402Z,22.01
2022-12-13T18:34:17.633Z,21.99
2022-12-13T18:36:18.944Z,21.96
2022-12-13T18:38:24.367Z,21.96
2022-12-13T18:40:25.837Z,22.07
2022-12-13T18:42:27.212Z,22.12
2022-12-13T18:44:28.545Z,22.20
2022-12-13T18:46:30.032Z,22.26
2022-12-13T18:48:31.636Z,22.44
2022-12-13T18:50:32.928Z,22.59
2022-12-13T18:52:34.804Z,22.56
2022-12-13T18:54:36.137Z,22.54
2022-12-13T18:56:37.456Z,22.53
2022-12-13T18:58:39.440Z,22.10
2022-12-13T19:00:40.778Z,22.15
2022-12-13T19:02:42.227Z,22.29
2022-12-13T19:04:55.094Z,22.31
2022-12-13T19:07:03.101Z,22.20
2022-12-13T19:09:04.485Z,22.17
2022-12-13T19:11:05.778Z,22.25
2022-12-13T19:13:07.088Z,22.10
2022-12-13T19:15:08.427Z,21.94
2022-12-13T19:17:09.729Z,21.82
2022-12-13T19:19:11.019Z,21.70
2022-12-13T19:21:15.116Z,21.66
2022-12-13T19:23:19.416Z,21.52
2022-12-13T19:25:20.805Z,21.29
2022-12-13T19:27:22.099Z,21.31
2022-12-13T19:29:26.536Z,21.34
2022-12-13T19:31:31.487Z,21.30
2022-12-13T19:33:33.279Z,21.26
2022-12-13T19:35:34.577Z,21.21
2022-12-13T19:37:36.462Z,21.20
2022-12-13T19:39:37.751Z,21.34
2022-12-13T19:41:39.129Z,21.39
2022-12-13T19:43:40.417Z,21.40
2022-12-13T19:45:41.741Z,21.35
2022-12-13T19:47:48.626Z,21.35
2022-12-13T19:49:50.020Z,21.68
2022-12-13T19:51:51.352Z,21.98
2022-12-13T19:53:52.687Z,22.16
2022-12-13T19:55:54.308Z,22.36
2022-12-13T19:57:55.671Z,22.50
2022-12-13T19:59:59.641Z,22.62
2022-12-13T20:02:01.145Z,22.79
2022-12-13T20:04:02.605Z,22.86
2022-12-13T20:06:03.935Z,22.90
2022-12-13T20:08:05.278Z,22.94
2022-12-13T20:10:09.327Z,22.94
2022-12-13T20:12:10.632Z,22.88
2022-12-13T20:14:11.962Z,22.81
2022-12-13T20:16:13.299Z,22.77
2022-12-13T20:18:14.626Z,22.68
2022-12-13T20:20:19.030Z,22.57
2022-12-13T20:22:20.369Z,22.44
2022-12-13T20:24:22.092Z,22.32
2022-12-13T20:26:23.382Z,22.27
2022-12-13T20:28:24.830Z,22.16
2022-12-13T20:30:26.159Z,22.08
2022-12-13T20:32:27.445Z,21.04
2022-12-13T20:34:28.769Z,21.58
2022-12-13T20:36:31.263Z,21.64
2022-12-13T20:38:32.681Z,21.69
2022-12-13T20:40:33.970Z,21.63
2022-12-13T20:42:35.308Z,21.58
2022-12-13T20:44:36.658Z,21.49
2022-12-13T20:46:38.152Z,21.13
2022-12-13T20:48:39.501Z,20.89
2022-12-13T20:50:40.836Z,20.72
2022-12-13T20:52:45.179Z,20.63
2022-12-13T20:54:55.589Z,20.53
2022-12-13T20:56:59.805Z,20.45
2022-12-13T20:59:01.136Z,20.38
2022-12-13T21:01:02.540Z,20.87
2022-12-13T21:03:03.993Z,20.95
2022-12-13T21:05:05.282Z,21.13
2022-12-13T21:07:06.624Z,21.37
2022-12-13T21:09:07.911Z,21.66
2022-12-13T21:11:24.588Z,21.97
2022-12-13T21:13:26.201Z,22.23
2022-12-13T21:15:28.028Z,22.45
2022-12-13T21:17:29.470Z,22.59
2022-12-13T21:19:39.430Z,22.73
2022-12-13T21:21:44.250Z,22.86
2022-12-13T21:23:45.580Z,22.99
2022-12-13T21:25:48.067Z,23.01
2022-12-13T21:27:49.504Z,22.99
2022-12-13T21:29:50.869Z,22.91
2022-12-13T21:31:55.290Z,22.76
2022-12-13T21:33:56.709Z,22.76
2022-12-13T21:35:58.036Z,22.69
2022-12-13T21:38:05.520Z,22.59
2022-12-13T21:40:07.016Z,22.49
2022-12-13T21:42:09.483Z,22.41
2022-12-13T21:44:10.801Z,22.31
2022-12-13T21:46:12.167Z,15.95
2022-12-13T21:48:13.824Z,16.38
2022-12-13T21:50:15.111Z,18.59
2022-12-13T21:52:16.580Z,19.67
2022-12-13T21:54:17.975Z,20.11
2022-12-13T21:56:48.569Z,20.27
2022-12-13T21:59:08.477Z,20.33
2022-12-13T22:01:09.822Z,20.40
2022-12-13T22:03:11.141Z,20.46
2022-12-13T22:05:12.470Z,20.57
2022-12-13T22:07:13.834Z,20.72
2022-12-13T22:09:15.164Z,20.89
2022-12-13T22:11:21.392Z,21.06
2022-12-13T22:13:23.072Z,21.22
2022-12-13T22:15:25.408Z,21.35
2022-12-13T22:17:34.310Z,21.41
2022-12-13T22:19:36.284Z,20.64
2022-12-13T22:21:37.609Z,21.54
2022-12-13T22:23:38.895Z,21.60
2022-12-13T22:25:40.225Z,21.60
2022-12-13T22:27:41.569Z,21.62
2022-12-13T22:29:42.948Z,21.64
2022-12-13T22:31:44.305Z,21.63
2022-12-13T22:33:50.428Z,21.62
2022-12-13T22:35:51.726Z,21.62
2022-12-13T22:37:53.794Z,21.57
2022-12-13T22:39:57.036Z,21.48
2022-12-13T22:41:58.332Z,21.42
2022-12-13T22:43:59.621Z,21.35
2022-12-13T22:46:01.035Z,21.26
2022-12-13T22:48:02.355Z,21.17
2022-12-13T22:50:03.652Z,21.11
2022-12-13T22:52:05.248Z,21.07
2022-12-13T22:54:06.579Z,20.99
2022-12-13T22:56:07.904Z,20.94
2022-12-13T22:58:09.189Z,20.88
2022-12-13T23:00:10.548Z,20.81
2022-12-13T23:02:11.943Z,20.77
2022-12-13T23:04:13.408Z,20.70
2022-12-13T23:06:14.753Z,20.64
2022-12-13T23:08:16.049Z,20.61
2022-12-13T23:10:36.122Z,20.55
2022-12-13T23:12:55.965Z,20.50
2022-12-13T23:14:57.265Z,19.61
2022-12-13T23:16:58.627Z,20.50
2022-12-13T23:19:24.082Z,20.53
2022-12-13T23:21:21.336Z,20.61
2022-12-13T23:23:22.680Z,20.64
2022-12-13T23:25:23.970Z,20.72
2022-12-13T23:27:25.299Z,20.82
2022-12-13T23:29:26.624Z,20.90
2022-12-13T23:31:27.924Z,21.05
2022-12-13T23:33:29.221Z,21.19
2022-12-13T23:35:30.512Z,21.27
2022-12-13T23:37:31.805Z,21.36
2022-12-13T23:39:33.193Z,21.36
2022-12-13T23:41:34.523Z,21.43
2022-12-13T23:43:35.861Z,21.53
2022-12-13T23:45:37.148Z,21.55
2022-12-13T23:47:38.459Z,21.55
2022-12-13T23:49:39.949Z,21.55
2022-12-13T23:51:41.863Z,21.54
2022-12-13T23:53:43.160Z,21.50
2022-12-13T23:55:44.480Z,21.44
2022-12-13T23:57:50.500Z,21.37
2022-12-13T23:59:52.162Z,21.34
